Hauptseite
METAR-TAF:

METAR-TAF

Flughäfen :

Flughafen Kunming-Changshui

Kunming, China

Breite: 25-01N, Länge: 102-41E, Höhe: 1892 m

Beobachtung

Neuester Wetterbericht von vor 45 Minuten, um 18:00 UTC
Wind 10 kt aus Südwest
Temperatur 8°C
Luftfeuchtigkeit 76%
Luftdruck 1022 hPa
Sichtweite 10 km oder mehr
keine Wolken unter 1500 m und keine Kumulonimbus oder Gewitterwolken

METAR: ZPPP 161800Z 22005MPS CAVOK 08/04 Q1022 NOSIG

Zeit: 02:45 (18:45 UTC)

Prognose

Neuester Wetterbericht von vor 5 Stunden und 39 Minuten, um 13:06 UTC
Gültige Prognose vom 16 um 18 UTC bis 17 um 18 UTC
Wind 8 kt aus Südwest
Sichtweite 10 km oder mehr
keine Wolken unter 1500 m und keine Kumulonimbus oder Gewitterwolken

TAF: ZPPP 161306Z 1618/1718 22004MPS CAVOK TX20/1708Z TN06/1623Z

Wetterbeobachtungen und Prognosen von mehr als 4000 Flughäfen (METAR und TAF Bericht).

Die verfügbaren Stationen werden durch gelbe und rote Markierungen auf der Karte dargestellt.

Führen Sie die Maus auf sie, um den Namen der Station zu sehen.

Darauf klicken, um die Beobachtung von Wetterbeobachtungen und Prognosen zu sehen.

Um die Karte zu ändern : klicken Sie auf den grünen Tasten mit einem schwarzen Kreuz Zum Vergrößern, auf den grünen Button mit einem Gedankenstrich zu verkleinern, oder auf die grünen Pfeile für benachbarte Karten.


METAR-TAF: